createdAt,value
2022-12-05T00:02:30.441Z,43.73
2022-12-05T00:07:29.942Z,54.87
2022-12-05T00:12:28.168Z,47.97
2022-12-05T00:24:23.831Z,43.47
2022-12-05T00:29:22.030Z,43.60
2022-12-05T00:34:20.256Z,48.50
2022-12-05T00:39:18.565Z,43.93
2022-12-05T00:44:18.161Z,42.90
2022-12-05T00:49:16.355Z,53.60
2022-12-05T00:54:17.176Z,45.10
2022-12-05T00:59:19.343Z,39.83
2022-12-05T01:04:20.900Z,43.07
2022-12-05T01:09:21.365Z,48.47
2022-12-05T01:14:24.395Z,37.70
2022-12-05T01:19:24.802Z,38.57
2022-12-05T01:24:30.185Z,36.97
2022-12-05T01:29:29.807Z,43.77
2022-12-05T01:34:28.032Z,44.60
2022-12-05T01:39:26.315Z,43.30
2022-12-05T01:45:04.620Z,45.17
2022-12-05T01:50:02.930Z,36.70
2022-12-05T01:55:07.157Z,34.30
2022-12-05T02:00:12.236Z,45.37
2022-12-05T02:05:16.239Z,38.70
2022-12-05T02:10:14.963Z,37.13
2022-12-05T02:15:27.588Z,39.37
2022-12-05T02:20:42.769Z,36.00
2022-12-05T02:26:17.752Z,41.97
2022-12-05T02:31:20.053Z,45.10
2022-12-05T02:36:23.966Z,39.10
2022-12-05T02:41:28.932Z,34.63
2022-12-05T02:46:32.064Z,41.40
2022-12-05T02:52:07.977Z,33.43
2022-12-05T02:57:06.975Z,36.20
2022-12-05T03:02:06.544Z,35.50
2022-12-05T03:07:08.324Z,35.43
2022-12-05T03:12:11.850Z,35.20
2022-12-05T03:17:13.819Z,31.90
2022-12-05T03:22:19.705Z,39.60
2022-12-05T03:27:24.166Z,31.50
2022-12-05T03:32:27.701Z,33.83
2022-12-05T03:37:36.202Z,38.37
2022-12-05T03:42:38.621Z,31.57
2022-12-05T03:47:46.500Z,32.83
2022-12-05T03:53:17.990Z,39.60
2022-12-05T03:58:11.326Z,38.43
2022-12-05T04:03:15.396Z,38.03
2022-12-05T04:08:20.501Z,37.00
2022-12-05T04:13:23.300Z,37.53
2022-12-05T04:18:27.978Z,31.47
2022-12-05T04:23:27.645Z,36.20
2022-12-05T04:28:33.623Z,42.43
2022-12-05T04:33:39.219Z,36.20
2022-12-05T04:38:43.238Z,37.90
2022-12-05T04:44:12.562Z,40.90
2022-12-05T04:50:12.755Z,42.23
2022-12-05T04:55:14.940Z,34.40
2022-12-05T05:00:13.915Z,38.40
2022-12-05T05:06:13.869Z,38.47
2022-12-05T05:11:17.529Z,45.60
2022-12-05T05:17:05.260Z,46.03
2022-12-05T05:22:03.489Z,48.07
2022-12-05T05:27:03.031Z,49.57
2022-12-05T05:32:01.225Z,55.00
2022-12-05T05:36:59.440Z,52.80
2022-12-05T05:41:57.594Z,49.67
2022-12-05T05:46:57.206Z,36.37
2022-12-05T05:51:55.420Z,53.67
2022-12-05T06:03:43.582Z,63.03
2022-12-05T06:08:44.223Z,57.10
2022-12-05T06:13:43.019Z,59.90
2022-12-05T06:18:43.124Z,70.63
2022-12-05T06:23:41.485Z,59.73
2022-12-05T06:28:39.774Z,40.97
2022-12-05T06:33:38.308Z,55.97
2022-12-05T06:39:02.785Z,59.73
2022-12-05T06:44:02.566Z,65.53
2022-12-05T06:49:01.569Z,83.53
2022-12-05T06:53:59.797Z,70.63
2022-12-05T06:58:59.386Z,63.73
2022-12-05T07:03:57.672Z,68.20
2022-12-05T07:08:56.195Z,54.20
2022-12-05T07:13:54.500Z,61.23
2022-12-05T07:18:54.066Z,64.50
2022-12-05T07:23:52.414Z,53.97
2022-12-05T07:28:51.881Z,48.53
2022-12-05T07:33:50.435Z,38.60
2022-12-05T07:38:50.052Z,52.97
2022-12-05T07:43:48.295Z,47.70
2022-12-05T07:48:46.711Z,44.50
2022-12-05T07:53:45.186Z,41.23
2022-12-05T07:58:45.635Z,41.90
2022-12-05T08:03:45.009Z,35.07
2022-12-05T08:08:43.685Z,35.80
2022-12-05T08:14:14.841Z,32.77
2022-12-05T08:19:14.045Z,30.20
2022-12-05T08:25:03.350Z,35.37
2022-12-05T08:30:32.023Z,42.63
2022-12-05T08:35:30.206Z,34.10
2022-12-05T08:40:28.402Z,35.90
2022-12-05T08:45:26.808Z,35.97
2022-12-05T08:50:26.332Z,32.60
2022-12-05T08:55:24.500Z,42.70
2022-12-05T09:00:23.106Z,36.80
2022-12-05T09:12:11.337Z,39.40
2022-12-05T09:17:09.532Z,37.47
2022-12-05T09:22:07.649Z,35.83
2022-12-05T09:27:05.787Z,43.30
2022-12-05T09:32:05.787Z,34.00
2022-12-05T09:37:23.208Z,34.03
2022-12-05T09:42:45.057Z,32.33
2022-12-05T09:47:54.439Z,27.47
2022-12-05T09:53:03.348Z,29.60
2022-12-05T09:58:03.932Z,33.73
2022-12-05T10:03:14.334Z,27.90
2022-12-05T10:08:20.811Z,28.87
2022-12-05T10:13:31.985Z,30.47
2022-12-05T10:25:22.077Z,28.47
2022-12-05T10:30:22.081Z,26.90
2022-12-05T10:35:22.605Z,37.27
2022-12-05T10:40:22.477Z,29.57
2022-12-05T10:45:23.750Z,26.77
2022-12-05T10:57:27.428Z,26.17
2022-12-05T11:02:28.558Z,22.27
2022-12-05T11:07:31.811Z,33.43
2022-12-05T11:12:38.880Z,27.47
2022-12-05T11:18:18.960Z,19.57
2022-12-05T11:30:42.230Z,29.87
2022-12-05T11:36:03.786Z,21.37
2022-12-05T11:41:35.129Z,22.90
2022-12-05T11:46:46.070Z,22.67
2022-12-05T11:51:53.707Z,23.27
2022-12-05T11:56:55.914Z,30.87
2022-12-05T12:02:03.603Z,22.33
2022-12-05T12:07:25.620Z,27.83
2022-12-05T12:12:33.050Z,22.13
2022-12-05T12:17:43.734Z,27.53
2022-12-05T12:22:57.030Z,24.20
2022-12-05T12:28:05.947Z,21.77
2022-12-05T12:33:09.560Z,22.90
2022-12-05T12:38:37.779Z,25.10
2022-12-05T12:43:55.545Z,26.70
2022-12-05T12:49:10.846Z,23.80
2022-12-05T12:54:54.813Z,24.30
2022-12-05T12:59:55.301Z,16.67
2022-12-05T13:04:59.085Z,17.63
2022-12-05T13:10:03.636Z,20.83
2022-12-05T13:15:06.245Z,14.00
2022-12-05T13:20:32.136Z,18.97
2022-12-05T13:25:35.251Z,16.13
2022-12-05T13:30:54.190Z,16.70
2022-12-05T13:36:17.182Z,16.13
2022-12-05T13:41:35.049Z,17.07
2022-12-05T13:46:36.484Z,14.77
2022-12-05T13:58:47.809Z,14.27
2022-12-05T14:03:58.320Z,12.63
2022-12-05T14:08:56.542Z,10.53
2022-12-05T14:14:03.796Z,12.87
2022-12-05T14:26:08.995Z,12.37
2022-12-05T14:31:23.682Z,12.77
2022-12-05T14:36:30.831Z,11.37
2022-12-05T14:55:26.860Z,12.43
2022-12-05T15:00:25.583Z,8.27
2022-12-05T15:12:24.732Z,14.43
2022-12-05T15:17:27.915Z,13.00
2022-12-05T15:22:29.096Z,11.73
2022-12-05T15:27:28.653Z,15.90
2022-12-05T15:32:29.214Z,15.17
2022-12-05T15:37:33.849Z,13.37
2022-12-05T15:42:38.057Z,12.33
2022-12-05T15:47:36.292Z,15.20
2022-12-05T15:52:41.883Z,12.60
2022-12-05T15:57:47.424Z,15.90
2022-12-05T16:02:48.417Z,14.90
2022-12-05T16:07:48.172Z,15.13
2022-12-05T16:19:22.285Z,15.93
2022-12-05T16:24:22.715Z,12.03
2022-12-05T16:29:28.887Z,14.90
2022-12-05T16:34:30.205Z,17.93
2022-12-05T16:40:25.052Z,16.20
2022-12-05T16:45:39.637Z,16.83
2022-12-05T16:50:39.172Z,17.53
2022-12-05T16:56:27.689Z,22.20
2022-12-05T17:01:28.425Z,19.23
2022-12-05T17:06:28.475Z,16.70
2022-12-05T17:12:37.848Z,24.00
2022-12-05T17:17:36.029Z,20.70
2022-12-05T17:23:35.845Z,22.27
2022-12-05T17:29:41.648Z,18.90
2022-12-05T17:34:41.189Z,20.97
2022-12-05T17:39:39.341Z,17.93
2022-12-05T17:44:55.455Z,23.87
2022-12-05T17:49:55.072Z,18.20
2022-12-05T17:54:53.230Z,18.07
2022-12-05T17:59:51.429Z,17.80
2022-12-05T18:04:49.664Z,15.17
2022-12-05T18:16:44.056Z,10.67
2022-12-05T18:21:42.281Z,18.03
2022-12-05T18:26:40.509Z,22.97
2022-12-05T18:31:41.629Z,20.60
2022-12-05T18:43:36.888Z,12.37
2022-12-05T18:48:42.641Z,15.73
2022-12-05T19:00:06.519Z,14.77
2022-12-05T19:05:05.002Z,11.77
2022-12-05T19:10:03.947Z,9.83
2022-12-05T19:15:02.278Z,13.87
2022-12-05T19:20:01.912Z,6.43
2022-12-05T19:25:00.441Z,18.23
2022-12-05T19:29:59.317Z,14.73
2022-12-05T19:34:58.013Z,17.90
2022-12-05T19:39:58.113Z,13.73
2022-12-05T19:44:56.494Z,14.23
2022-12-05T19:49:54.707Z,11.90
2022-12-05T19:54:52.922Z,11.77
2022-12-05T19:59:52.566Z,14.87
2022-12-05T20:04:50.855Z,14.70
2022-12-05T20:09:49.145Z,14.37
2022-12-05T20:14:47.288Z,21.40
2022-12-05T20:19:46.812Z,15.53
2022-12-05T20:24:45.043Z,18.97
2022-12-05T20:29:43.439Z,18.70
2022-12-05T20:34:41.699Z,10.20
2022-12-05T20:39:41.283Z,12.63
2022-12-05T20:44:40.278Z,10.33
2022-12-05T20:49:38.495Z,12.40
2022-12-05T20:54:36.733Z,9.10
2022-12-05T20:59:36.367Z,9.73
2022-12-05T21:04:38.986Z,10.97
2022-12-05T21:09:37.147Z,8.00
2022-12-05T21:14:36.857Z,11.67
2022-12-05T21:19:35.061Z,12.37
2022-12-05T21:24:33.266Z,10.97
2022-12-05T21:29:31.577Z,8.50
2022-12-05T21:34:48.186Z,11.70
2022-12-05T21:39:46.426Z,9.47
2022-12-05T21:44:44.609Z,7.83
2022-12-05T21:56:23.798Z,9.63
2022-12-05T22:01:24.312Z,7.23
2022-12-05T22:06:22.685Z,7.17
2022-12-05T22:11:24.163Z,8.03
2022-12-05T22:16:25.352Z,7.40
2022-12-05T22:21:27.338Z,8.90
2022-12-05T22:26:27.639Z,6.40
2022-12-05T22:31:26.081Z,5.00
2022-12-05T22:44:25.732Z,6.10
2022-12-05T22:49:25.455Z,5.53
2022-12-05T22:54:27.298Z,5.63
2022-12-05T22:59:28.374Z,7.33
2022-12-05T23:04:28.049Z,6.53
2022-12-05T23:16:26.246Z,8.40
2022-12-05T23:21:28.474Z,9.90
2022-12-05T23:26:32.096Z,13.67
2022-12-05T23:31:30.431Z,6.70
2022-12-05T23:36:29.992Z,11.03
2022-12-05T23:41:28.410Z,7.13
2022-12-05T23:46:28.423Z,7.33
2022-12-05T23:51:29.688Z,10.73
2022-12-05T23:56:30.034Z,6.40
